Time;durP1;ratioP1;P1;durP2;ratioP2;P2;SDS_P1;SDS_P2;PMS_P1;PMS_P2;Temp;Humidity;BMP_temperature;BMP_pressure;BME280_temperature;BME280_humidity;BME280_pressure;Samples;Min_cycle;Max_cycle;Signal;HPM_P1;HPM_P2
2022/07/08 00:02:04;;;;;;;0.00;0.00;;;18.50;61.80;;;;;;5072764;28;20036;-76
2022/07/08 00:04:30;;;;;;;0.00;0.00;;;18.50;63.50;;;;;;5072023;28;20027;-75
2022/07/08 00:06:56;;;;;;;0.00;0.00;;;18.70;64.40;;;;;;5053038;28;20466;-75
2022/07/08 00:09:22;;;;;;;0.00;0.00;;;18.80;63.40;;;;;;5070941;28;20032;-75
2022/07/08 00:11:48;;;;;;;0.57;0.57;;;18.90;62.30;;;;;;5070254;28;20457;-76
2022/07/08 00:14:14;;;;;;;0.00;0.00;;;18.90;62.70;;;;;;5067981;28;20037;-75
2022/07/08 00:16:43;;;;;;;0.00;0.00;;;19.00;64.10;;;;;;5071242;28;20039;-75
2022/07/08 00:19:14;;;;;;;0.00;0.00;;;19.20;62.20;;;;;;5072746;28;20033;-75
2022/07/08 00:21:44;;;;;;;0.00;0.00;;;19.60;60.40;;;;;;5073252;28;20021;-76
2022/07/08 00:24:14;;;;;;;0.00;0.00;;;19.80;59.10;;;;;;5072982;28;20020;-77
2022/07/08 00:26:41;;;;;;;0.00;0.00;;;20.00;59.60;;;;;;5072084;28;20469;-75
2022/07/08 00:29:07;;;;;;;0.55;0.55;;;20.50;57.80;;;;;;5071692;28;20033;-76
2022/07/08 00:31:34;;;;;;;0.13;0.13;;;21.10;55.90;;;;;;5070317;28;20036;-77
2022/07/08 00:34:00;;;;;;;0.00;0.00;;;21.80;55.40;;;;;;5070394;28;20020;-75
2022/07/08 00:36:27;;;;;;;0.00;0.00;;;22.40;54.10;;;;;;5070767;28;20071;-74
2022/07/08 00:38:53;;;;;;;0.00;0.00;;;23.00;52.30;;;;;;5072036;28;20270;-75
2022/07/08 00:41:19;;;;;;;0.00;0.00;;;23.50;51.50;;;;;;5072201;28;20027;-74
2022/07/08 00:43:47;;;;;;;0.00;0.00;;;23.70;50.90;;;;;;5074016;28;20025;-76
2022/07/08 00:46:14;;;;;;;0.00;0.00;;;24.50;49.60;;;;;;5078700;28;20017;-74
2022/07/08 00:48:42;;;;;;;0.90;0.90;;;24.80;48.50;;;;;;5064912;28;20032;-75
2022/07/08 00:51:11;;;;;;;0.00;0.00;;;24.70;49.00;;;;;;5067820;28;20457;-75
2022/07/08 00:53:46;;;;;;;0.00;0.00;;;25.10;49.10;;;;;;5071526;28;20029;-75
2022/07/08 00:56:13;;;;;;;0.00;0.00;;;26.20;46.40;;;;;;5072333;28;20020;-75
2022/07/08 00:58:40;;;;;;;0.00;0.00;;;26.50;44.60;;;;;;5067184;28;20365;-75
2022/07/08 01:01:07;;;;;;;0.00;0.00;;;26.60;46.10;;;;;;5069381;28;20021;-75
2022/07/08 01:03:33;;;;;;;0.00;0.00;;;26.90;46.50;;;;;;5065198;28;20017;-75
2022/07/08 01:05:59;;;;;;;0.00;0.00;;;27.70;45.40;;;;;;5073923;28;20389;-76
2022/07/08 01:08:25;;;;;;;0.00;0.00;;;28.20;43.10;;;;;;5075343;28;20025;-76
2022/07/08 01:10:52;;;;;;;0.17;0.17;;;28.60;43.60;;;;;;5074574;28;20024;-77
2022/07/08 01:13:19;;;;;;;0.00;0.00;;;28.10;41.50;;;;;;5073547;28;20024;-76
2022/07/08 01:15:45;;;;;;;0.00;0.00;;;28.30;41.60;;;;;;5072448;28;20028;-75
2022/07/08 01:18:30;;;;;;;0.00;0.00;;;28.20;42.00;;;;;;5074922;28;20056;-75
2022/07/08 01:20:57;;;;;;;0.00;0.00;;;26.50;43.60;;;;;;5074598;28;20021;-74
2022/07/08 01:23:23;;;;;;;0.00;0.00;;;28.00;43.10;;;;;;5070585;28;20470;-76
2022/07/08 01:25:49;;;;;;;0.00;0.00;;;29.20;42.10;;;;;;5075202;28;20025;-75
2022/07/08 01:28:16;;;;;;;0.00;0.00;;;29.30;42.00;;;;;;5075524;28;20441;-74
2022/07/08 01:30:43;;;;;;;0.00;0.00;;;27.50;43.50;;;;;;5073110;28;20063;-76
2022/07/08 01:33:09;;;;;;;1.08;0.70;;;28.10;44.40;;;;;;5072305;28;20020;-76
2022/07/08 01:35:36;;;;;;;0.00;0.00;;;28.50;40.90;;;;;;5074605;28;20025;-75
2022/07/08 01:38:02;;;;;;;0.55;0.55;;;27.60;42.60;;;;;;5071489;28;20401;-76
2022/07/08 01:40:28;;;;;;;0.08;0.08;;;27.20;41.70;;;;;;5074697;28;20458;-75
2022/07/08 01:42:54;;;;;;;0.13;0.13;;;26.70;42.20;;;;;;5071072;28;20202;-74
2022/07/08 01:45:20;;;;;;;0.30;0.30;;;26.70;43.20;;;;;;5074676;28;20035;-76
2022/07/08 01:47:46;;;;;;;0.17;0.17;;;25.10;45.00;;;;;;5073339;28;20346;-75
2022/07/08 01:50:12;;;;;;;0.10;0.10;;;25.60;45.10;;;;;;5070294;28;20031;-76
2022/07/08 01:52:38;;;;;;;0.00;0.00;;;26.50;47.30;;;;;;5074932;28;20036;-75
2022/07/08 01:55:05;;;;;;;0.15;0.15;;;27.00;44.60;;;;;;5075292;28;20103;-76
2022/07/08 01:57:34;;;;;;;0.00;0.00;;;26.10;47.20;;;;;;5074595;28;20036;-76
2022/07/08 02:00:00;;;;;;;2.08;1.98;;;27.00;43.80;;;;;;5074586;28;20473;-76
2022/07/08 02:02:26;;;;;;;0.00;0.00;;;26.40;46.00;;;;;;5070044;28;20025;-75
2022/07/08 02:04:52;;;;;;;16.45;2.75;;;27.10;42.80;;;;;;5073313;28;20051;-75
2022/07/08 02:07:18;;;;;;;1.77;1.67;;;28.10;42.90;;;;;;5068534;28;20282;-75
2022/07/08 02:09:44;;;;;;;0.10;0.10;;;28.70;43.00;;;;;;5073450;28;20063;-75
2022/07/08 02:12:20;;;;;;;0.28;0.28;;;29.20;39.60;;;;;;5074141;28;20070;-75
2022/07/08 02:14:51;;;;;;;0.00;0.00;;;29.10;40.10;;;;;;5073627;28;20047;-76
2022/07/08 02:17:19;;;;;;;0.00;0.00;;;28.50;40.10;;;;;;5069223;28;20024;-75
2022/07/08 02:19:46;;;;;;;0.15;0.15;;;28.30;40.00;;;;;;5073867;28;20035;-76
2022/07/08 02:22:12;;;;;;;0.00;0.00;;;28.60;39.20;;;;;;5073820;28;20020;-76
2022/07/08 02:24:39;;;;;;;0.80;0.80;;;27.80;39.30;;;;;;5069320;28;20082;-74
2022/07/08 02:27:05;;;;;;;0.00;0.00;;;27.80;40.10;;;;;;5072776;28;20029;-76
2022/07/08 02:29:31;;;;;;;0.08;0.08;;;27.40;40.80;;;;;;5072351;28;20495;-76
2022/07/08 02:31:58;;;;;;;0.32;0.32;;;27.40;41.70;;;;;;5070710;28;20115;-76
2022/07/08 02:34:24;;;;;;;8.73;8.10;;;27.10;41.80;;;;;;5069023;28;20029;-76
2022/07/08 02:36:50;;;;;;;0.00;0.00;;;27.80;39.90;;;;;;5070368;28;20016;-75
2022/07/08 02:39:16;;;;;;;9.52;2.50;;;27.90;40.70;;;;;;5066852;28;20024;-75
2022/07/08 02:41:43;;;;;;;0.00;0.00;;;27.60;39.60;;;;;;5065063;28;20103;-76
2022/07/08 02:44:09;;;;;;;0.00;0.00;;;27.60;40.30;;;;;;5066604;28;20035;-75
2022/07/08 02:46:38;;;;;;;0.00;0.00;;;28.60;38.90;;;;;;5067751;28;20024;-75
2022/07/08 02:49:04;;;;;;;0.55;0.55;;;29.20;38.10;;;;;;5067537;28;20423;-75
2022/07/08 02:51:30;;;;;;;0.00;0.00;;;30.00;37.80;;;;;;5064960;28;20028;-76
2022/07/08 02:53:57;;;;;;;4.20;3.83;;;31.00;36.40;;;;;;5065851;28;20028;-77
2022/07/08 02:56:23;;;;;;;0.10;0.10;;;32.10;35.00;;;;;;5057629;28;20516;-76
2022/07/08 02:58:49;;;;;;;0.82;0.82;;;31.40;36.30;;;;;;5070093;28;20082;-76
2022/07/08 03:01:15;;;;;;;0.45;0.35;;;29.60;37.50;;;;;;5066059;28;20458;-75
2022/07/08 03:03:41;;;;;;;0.00;0.00;;;29.70;37.50;;;;;;5068009;28;20119;-75
2022/07/08 03:06:07;;;;;;;0.22;0.22;;;29.20;38.00;;;;;;5063395;28;20035;-76
2022/07/08 03:08:33;;;;;;;0.00;0.00;;;28.30;40.00;;;;;;5065947;28;20033;-76
2022/07/08 03:10:58;;;;;;;0.00;0.00;;;27.30;42.00;;;;;;5063458;28;20070;-73
2022/07/08 03:13:24;;;;;;;0.00;0.00;;;28.70;40.30;;;;;;5062967;28;20120;-76
2022/07/08 03:15:50;;;;;;;0.00;0.00;;;30.10;37.50;;;;;;5066172;28;20040;-75
2022/07/08 03:18:16;;;;;;;0.35;0.20;;;30.70;36.30;;;;;;5068613;28;21438;-75
2022/07/08 03:20:42;;;;;;;0.00;0.00;;;29.80;37.20;;;;;;5062634;28;20024;-79
2022/07/08 03:23:08;;;;;;;2.47;0.75;;;27.90;38.50;;;;;;5069539;28;20373;-77
2022/07/08 03:25:34;;;;;;;0.20;0.20;;;29.30;38.00;;;;;;5070859;28;20082;-77
2022/07/08 03:28:01;;;;;;;0.25;0.25;;;28.90;37.10;;;;;;5068264;28;20052;-76
2022/07/08 03:30:27;;;;;;;2.47;2.38;;;28.30;39.60;;;;;;5068008;28;20107;-77
2022/07/08 03:32:54;;;;;;;0.52;0.40;;;29.40;36.80;;;;;;5065429;28;20054;-75
2022/07/08 03:35:20;;;;;;;0.00;0.00;;;30.40;35.50;;;;;;5063368;28;20040;-77
2022/07/08 03:37:48;;;;;;;0.00;0.00;;;29.30;35.80;;;;;;5065827;28;20031;-79
2022/07/08 03:43:00;;;;;;;0.00;0.00;;;29.30;35.40;;;;;;5062995;28;20587;-77
2022/07/08 03:45:26;;;;;;;0.10;0.10;;;28.60;37.10;;;;;;5064260;28;20172;-77
2022/07/08 03:47:52;;;;;;;0.43;0.43;;;29.20;36.20;;;;;;5065288;28;20052;-76
2022/07/08 03:50:19;;;;;;;0.35;0.25;;;29.20;36.00;;;;;;5065343;28;20141;-76
2022/07/08 03:52:46;;;;;;;4.47;0.85;;;28.80;35.90;;;;;;5067872;28;20024;-76
2022/07/08 03:55:12;;;;;;;0.10;0.10;;;28.00;37.30;;;;;;5067160;28;20532;-76
2022/07/08 03:57:38;;;;;;;2.70;2.58;;;27.90;37.80;;;;;;5073032;28;20045;-75
2022/07/08 04:00:07;;;;;;;1.05;0.98;;;27.90;37.30;;;;;;5068968;28;20386;-76
2022/07/08 04:02:36;;;;;;;0.22;0.22;;;27.90;38.50;;;;;;5063613;28;20025;-77
2022/07/08 04:05:02;;;;;;;0.00;0.00;;;27.70;38.40;;;;;;5063395;28;20081;-77
2022/07/08 04:07:28;;;;;;;0.30;0.30;;;27.40;38.80;;;;;;5066068;28;20413;-75
2022/07/08 04:09:54;;;;;;;0.00;0.00;;;26.70;40.30;;;;;;5088290;27;20019;-75
2022/07/08 04:12:20;;;;;;;0.10;0.10;;;26.70;40.40;;;;;;5126205;27;20166;-76
2022/07/08 04:14:46;;;;;;;0.00;0.00;;;25.80;39.20;;;;;;5121930;27;20046;-75
2022/07/08 04:17:12;;;;;;;0.00;0.00;;;25.40;41.40;;;;;;5125860;27;20024;-76
2022/07/08 04:19:38;;;;;;;0.00;0.00;;;25.70;40.70;;;;;;5124144;27;20035;-76
2022/07/08 04:22:04;;;;;;;0.43;0.43;;;26.10;39.60;;;;;;5125659;27;20360;-75
2022/07/08 04:24:30;;;;;;;0.00;0.00;;;26.20;39.30;;;;;;5125593;27;20033;-76
2022/07/08 04:26:56;;;;;;;0.00;0.00;;;25.90;40.40;;;;;;5117570;27;20057;-78
2022/07/08 04:29:22;;;;;;;0.20;0.20;;;25.70;40.70;;;;;;5124156;27;20023;-75
2022/07/08 04:31:48;;;;;;;3.03;2.85;;;25.40;41.30;;;;;;5124460;27;20039;-76
2022/07/08 04:34:15;;;;;;;11.63;10.52;;;25.90;40.30;;;;;;5122816;27;20030;-76
2022/07/08 04:36:41;;;;;;;0.45;0.40;;;25.80;41.00;;;;;;5125569;27;20367;-77
2022/07/08 04:39:07;;;;;;;1.00;0.43;;;25.70;41.10;;;;;;5122184;27;20289;-77
2022/07/08 04:41:33;;;;;;;7.88;7.13;;;26.00;41.20;;;;;;5125605;27;20062;-77
2022/07/08 04:43:59;;;;;;;0.00;0.00;;;25.60;38.70;;;;;;5124690;27;20058;-75
2022/07/08 04:46:25;;;;;;;0.05;0.05;;;25.70;39.70;;;;;;5127468;27;20081;-75
2022/07/08 04:48:52;;;;;;;0.20;0.20;;;26.00;40.60;;;;;;5129749;27;20068;-76
2022/07/08 04:51:18;;;;;;;0.55;0.52;;;26.10;40.30;;;;;;5129050;27;20031;-75
2022/07/08 04:53:44;;;;;;;0.00;0.00;;;26.50;39.30;;;;;;5128796;27;20258;-75
2022/07/08 04:56:10;;;;;;;0.10;0.10;;;26.20;38.70;;;;;;5129787;27;20035;-77
2022/07/08 04:58:36;;;;;;;0.00;0.00;;;26.40;37.50;;;;;;5132333;27;20134;-76
2022/07/08 05:01:03;;;;;;;0.00;0.00;;;26.00;41.10;;;;;;5133047;27;20398;-76
2022/07/08 05:03:29;;;;;;;0.00;0.00;;;25.90;41.30;;;;;;5128867;27;20063;-76
2022/07/08 05:05:55;;;;;;;0.00;0.00;;;26.10;40.40;;;;;;5127001;27;20023;-77
2022/07/08 05:08:21;;;;;;;0.43;0.20;;;25.80;39.60;;;;;;5123605;27;20051;-77
2022/07/08 05:10:48;;;;;;;0.15;0.15;;;25.70;40.20;;;;;;5132170;27;20471;-76
2022/07/08 05:13:14;;;;;;;0.00;0.00;;;25.60;39.80;;;;;;5128851;27;20061;-76
2022/07/08 05:15:40;;;;;;;0.00;0.00;;;25.70;40.00;;;;;;5129291;27;20083;-75
2022/07/08 05:18:06;;;;;;;0.00;0.00;;;25.60;37.10;;;;;;5135197;27;20023;-77
2022/07/08 05:20:33;;;;;;;0.00;0.00;;;25.90;39.40;;;;;;5135543;27;20136;-76
2022/07/08 05:22:58;;;;;;;0.00;0.00;;;26.20;38.50;;;;;;5134727;27;20490;-77
2022/07/08 05:25:25;;;;;;;0.00;0.00;;;26.30;39.00;;;;;;5126657;27;20024;-77
2022/07/08 05:27:51;;;;;;;0.32;0.05;;;25.80;38.70;;;;;;5121801;27;20023;-76
2022/07/08 05:30:17;;;;;;;0.00;0.00;;;25.80;38.20;;;;;;5129301;27;20063;-76
2022/07/08 05:32:43;;;;;;;0.88;0.88;;;25.40;37.50;;;;;;5127946;27;20069;-77
2022/07/08 05:35:12;;;;;;;0.00;0.00;;;25.80;38.60;;;;;;5130381;27;20119;-77
2022/07/08 05:37:38;;;;;;;0.08;0.08;;;25.70;38.30;;;;;;5125110;27;20034;-76
2022/07/08 05:40:06;;;;;;;0.00;0.00;;;25.60;36.80;;;;;;5125755;27;20034;-76
2022/07/08 05:42:32;;;;;;;0.00;0.00;;;25.70;37.20;;;;;;5126373;27;20079;-77
2022/07/08 05:44:59;;;;;;;0.00;0.00;;;26.00;37.50;;;;;;5129615;27;20387;-76
2022/07/08 05:47:24;;;;;;;0.00;0.00;;;26.00;37.00;;;;;;5123470;27;20577;-75
2022/07/08 05:49:50;;;;;;;0.20;0.00;;;25.90;36.90;;;;;;5123283;27;20079;-76
2022/07/08 05:52:16;;;;;;;0.20;0.20;;;25.90;34.60;;;;;;5129610;27;20036;-77
2022/07/08 05:54:45;;;;;;;0.00;0.00;;;25.70;36.50;;;;;;5132762;27;20023;-75
2022/07/08 05:57:12;;;;;;;0.00;0.00;;;25.60;37.30;;;;;;5129093;27;20456;-76
2022/07/08 05:59:38;;;;;;;0.03;0.00;;;25.50;38.30;;;;;;5127084;27;20036;-76
2022/07/08 06:02:04;;;;;;;0.25;0.25;;;25.40;38.90;;;;;;5129660;27;20043;-77
2022/07/08 06:04:30;;;;;;;0.00;0.00;;;25.60;38.90;;;;;;5127212;27;20106;-77
2022/07/08 06:06:57;;;;;;;0.00;0.00;;;25.80;39.30;;;;;;5130543;27;20032;-77
2022/07/08 06:09:24;;;;;;;0.57;0.57;;;25.80;38.50;;;;;;5128956;27;20421;-77
2022/07/08 06:11:50;;;;;;;0.00;0.00;;;25.90;37.90;;;;;;5130543;27;20064;-77
2022/07/08 06:14:17;;;;;;;0.00;0.00;;;25.90;38.00;;;;;;5129756;27;20118;-78
2022/07/08 06:16:43;;;;;;;0.00;0.00;;;26.10;38.30;;;;;;5128821;27;20040;-76
2022/07/08 06:19:09;;;;;;;0.00;0.00;;;26.40;38.20;;;;;;5125298;27;20113;-77
2022/07/08 06:21:35;;;;;;;0.00;0.00;;;26.70;37.50;;;;;;5132932;27;20144;-78
2022/07/08 06:24:01;;;;;;;0.00;0.00;;;26.90;39.30;;;;;;5127895;27;20022;-78
2022/07/08 06:26:28;;;;;;;0.00;0.00;;;26.60;38.10;;;;;;5129340;27;20028;-77
2022/07/08 06:28:55;;;;;;;0.00;0.00;;;26.50;38.20;;;;;;5130803;27;20067;-77
2022/07/08 06:31:21;;;;;;;0.00;0.00;;;26.30;39.20;;;;;;5134477;27;20031;-77
2022/07/08 06:33:47;;;;;;;0.20;0.20;;;26.30;40.30;;;;;;5132825;27;20031;-77
2022/07/08 06:36:13;;;;;;;0.20;0.10;;;26.10;39.40;;;;;;5127875;27;20031;-76
2022/07/08 06:38:39;;;;;;;0.00;0.00;;;26.10;39.90;;;;;;5130292;27;20035;-76
2022/07/08 06:41:04;;;;;;;0.05;0.03;;;26.00;40.10;;;;;;5132051;27;20065;-76
2022/07/08 06:43:30;;;;;;;2.90;1.20;;;26.00;39.80;;;;;;5127742;27;20044;-76
2022/07/08 06:45:56;;;;;;;0.47;0.40;;;26.00;39.50;;;;;;5131378;27;20023;-76
2022/07/08 06:48:22;;;;;;;0.00;0.00;;;26.10;39.50;;;;;;5129458;27;20019;-75
2022/07/08 06:50:49;;;;;;;0.52;0.10;;;26.10;39.10;;;;;;5129776;27;20035;-78
2022/07/08 06:53:15;;;;;;;0.00;0.00;;;26.10;39.90;;;;;;5130327;27;20090;-78
2022/07/08 06:55:40;;;;;;;0.00;0.00;;;26.30;38.70;;;;;;5130161;27;20026;-78
2022/07/08 06:58:06;;;;;;;0.55;0.55;;;26.20;38.90;;;;;;5130428;27;20058;-77
2022/07/08 07:00:32;;;;;;;0.00;0.00;;;26.30;39.80;;;;;;5129221;27;20467;-75
2022/07/08 07:02:59;;;;;;;0.00;0.00;;;26.60;39.30;;;;;;5129373;27;20034;-75
2022/07/08 07:05:25;;;;;;;2.17;1.63;;;26.40;38.70;;;;;;5129082;27;20035;-78
2022/07/08 07:07:51;;;;;;;0.00;0.00;;;26.20;38.40;;;;;;5127423;27;21026;-77
2022/07/08 07:10:17;;;;;;;0.00;0.00;;;26.20;38.90;;;;;;5128943;27;20023;-74
2022/07/08 07:12:43;;;;;;;0.00;0.00;;;26.20;39.00;;;;;;5126596;27;20012;-77
2022/07/08 07:15:09;;;;;;;0.05;0.05;;;26.20;39.00;;;;;;5123150;27;20532;-77
2022/07/08 07:17:35;;;;;;;0.57;0.57;;;26.50;38.40;;;;;;5125639;27;20035;-76
2022/07/08 07:20:01;;;;;;;1.92;1.17;;;26.70;38.10;;;;;;5126934;27;20034;-77
2022/07/08 07:22:27;;;;;;;1.05;0.63;;;26.60;39.50;;;;;;5128604;27;20016;-77
2022/07/08 07:24:53;;;;;;;0.80;0.22;;;26.50;38.40;;;;;;5126205;27;20021;-77
2022/07/08 07:27:19;;;;;;;0.15;0.00;;;26.50;38.20;;;;;;5130901;27;20131;-77
2022/07/08 07:29:45;;;;;;;0.00;0.00;;;26.60;39.00;;;;;;5127938;27;20548;-78
2022/07/08 07:32:11;;;;;;;0.00;0.00;;;26.90;38.80;;;;;;5131406;27;20041;-78
2022/07/08 07:34:37;;;;;;;0.65;0.05;;;27.30;38.50;;;;;;5133430;27;20368;-79
2022/07/08 07:37:03;;;;;;;0.00;0.00;;;27.40;37.20;;;;;;5128563;27;20046;-77
2022/07/08 07:39:29;;;;;;;0.10;0.10;;;27.00;37.90;;;;;;5125456;27;20027;-78
2022/07/08 07:41:55;;;;;;;0.13;0.03;;;26.80;38.30;;;;;;5123448;27;20030;-78
2022/07/08 07:44:21;;;;;;;0.00;0.00;;;26.90;38.20;;;;;;5124385;27;20093;-77
2022/07/08 07:46:50;;;;;;;0.00;0.00;;;27.10;39.60;;;;;;5124293;27;20023;-78
2022/07/08 07:49:16;;;;;;;0.00;0.00;;;27.40;38.10;;;;;;5121764;27;20101;-78
2022/07/08 07:51:42;;;;;;;0.00;0.00;;;27.40;37.30;;;;;;5117332;27;20115;-79
2022/07/08 07:54:08;;;;;;;0.00;0.00;;;27.20;37.70;;;;;;5118912;27;20031;-77
2022/07/08 07:56:34;;;;;;;0.03;0.03;;;27.00;37.90;;;;;;5124241;27;20390;-79
2022/07/08 07:59:03;;;;;;;50.40;1.33;;;27.10;37.70;;;;;;5124273;27;20039;-79
2022/07/08 08:01:29;;;;;;;0.00;0.00;;;27.30;37.90;;;;;;5119389;27;20042;-77
2022/07/08 08:03:55;;;;;;;0.75;0.00;;;27.70;37.60;;;;;;5124613;27;20076;-79
2022/07/08 08:06:21;;;;;;;0.00;0.00;;;27.40;37.90;;;;;;5126069;27;20027;-78
2022/07/08 08:08:47;;;;;;;0.00;0.00;;;27.50;37.70;;;;;;5127725;27;20034;-77
2022/07/08 08:11:13;;;;;;;0.10;0.10;;;27.30;38.70;;;;;;5125328;27;20055;-79
2022/07/08 08:13:39;;;;;;;0.00;0.00;;;27.70;37.40;;;;;;5124413;27;20035;-78
2022/07/08 08:16:05;;;;;;;0.00;0.00;;;28.10;37.30;;;;;;5129853;27;20076;-76
2022/07/08 08:18:31;;;;;;;0.00;0.00;;;28.50;36.40;;;;;;5131005;27;20035;-77
2022/07/08 08:20:57;;;;;;;0.00;0.00;;;28.80;36.90;;;;;;5133505;27;20344;-77
2022/07/08 08:23:23;;;;;;;0.00;0.00;;;28.70;37.60;;;;;;5131611;27;20035;-77
2022/07/08 08:25:49;;;;;;;0.22;0.22;;;29.00;35.90;;;;;;5128543;27;20308;-80
2022/07/08 08:28:15;;;;;;;0.00;0.00;;;28.90;36.50;;;;;;5128080;27;20027;-78
2022/07/08 08:30:41;;;;;;;0.00;0.00;;;29.00;36.20;;;;;;5133847;27;20023;-77
2022/07/08 08:33:07;;;;;;;0.00;0.00;;;28.20;37.00;;;;;;5131296;27;20102;-78
2022/07/08 08:35:33;;;;;;;0.00;0.00;;;28.60;36.80;;;;;;5129651;27;20027;-78
2022/07/08 08:38:03;;;;;;;0.00;0.00;;;28.20;37.10;;;;;;5133914;27;20026;-77
2022/07/08 08:40:31;;;;;;;0.00;0.00;;;28.10;37.80;;;;;;5135402;27;20019;-78
2022/07/08 08:42:57;;;;;;;0.03;0.03;;;28.30;37.50;;;;;;5133313;27;20019;-79
2022/07/08 08:45:23;;;;;;;0.00;0.00;;;29.00;37.40;;;;;;5131774;27;20023;-76
2022/07/08 08:47:52;;;;;;;0.00;0.00;;;28.80;37.40;;;;;;5129769;27;20055;-77
2022/07/08 08:53:06;;;;;;;0.00;0.00;;;28.70;37.80;;;;;;5130096;27;20038;-78
2022/07/08 08:55:33;;;;;;;0.00;0.00;;;29.20;37.60;;;;;;5127791;27;20023;-79
2022/07/08 08:58:05;;;;;;;0.00;0.00;;;29.30;38.30;;;;;;5129935;27;20055;-79
2022/07/08 09:00:34;;;;;;;0.00;0.00;;;30.00;36.70;;;;;;5129694;27;20052;-79
2022/07/08 09:03:00;;;;;;;0.20;0.20;;;30.10;37.20;;;;;;5132732;27;20327;-79
2022/07/08 09:05:27;;;;;;;0.15;0.15;;;29.80;36.80;;;;;;5129066;27;20023;-79
2022/07/08 09:07:56;;;;;;;0.20;0.20;;;29.60;36.70;;;;;;5132180;27;20027;-81
2022/07/08 09:10:23;;;;;;;1.55;1.35;;;29.10;37.00;;;;;;5129377;27;20023;-80
2022/07/08 09:13:05;;;;;;;0.00;0.00;;;29.10;37.30;;;;;;5132178;27;20030;-77
2022/07/08 09:15:34;;;;;;;0.20;0.20;;;28.80;37.10;;;;;;5129079;27;20020;-78
2022/07/08 09:18:01;;;;;;;0.82;0.30;;;28.70;37.40;;;;;;5130692;27;20023;-79
2022/07/08 09:20:38;;;;;;;1.65;0.55;;;28.70;37.30;;;;;;5128892;27;20486;-76
2022/07/08 09:23:04;;;;;;;0.00;0.00;;;28.40;38.20;;;;;;5127095;27;20157;-77
2022/07/08 09:25:33;;;;;;;0.00;0.00;;;28.30;38.10;;;;;;5128121;27;20022;-76
2022/07/08 09:27:59;;;;;;;0.00;0.00;;;28.70;37.10;;;;;;5129720;27;20351;-78
2022/07/08 09:30:30;;;;;;;0.00;0.00;;;28.80;37.50;;;;;;5133313;27;20026;-78
2022/07/08 09:32:58;;;;;;;0.00;0.00;;;29.30;37.50;;;;;;5138445;27;20467;-77
2022/07/08 09:35:53;;;;;;;0.08;0.08;;;29.60;36.50;;;;;;5133390;27;20023;-77
2022/07/08 09:38:19;;;;;;;0.00;0.00;;;29.20;36.80;;;;;;5118616;27;20067;-79
2022/07/08 09:40:58;;;;;;;0.00;0.00;;;29.10;37.90;;;;;;5130599;27;20530;-79
2022/07/08 09:43:26;;;;;;;0.47;0.47;;;29.40;37.60;;;;;;5130296;27;20418;-80
2022/07/08 09:45:52;;;;;;;0.05;0.05;;;29.80;37.70;;;;;;5128542;27;20023;-79
2022/07/08 09:48:19;;;;;;;0.10;0.10;;;29.20;36.90;;;;;;5126597;27;20027;-78
2022/07/08 09:50:47;;;;;;;0.00;0.00;;;28.80;37.00;;;;;;5136768;27;20039;-80
2022/07/08 09:53:22;;;;;;;0.17;0.17;;;28.60;37.50;;;;;;5126299;27;20052;-78
2022/07/08 09:55:52;;;;;;;1.85;1.75;;;28.90;37.10;;;;;;5125775;27;20739;-78
2022/07/08 09:58:23;;;;;;;0.00;0.00;;;28.80;37.80;;;;;;5125400;27;20172;-80
2022/07/08 10:00:52;;;;;;;0.20;0.20;;;28.40;38.30;;;;;;5126411;27;20019;-80
2022/07/08 10:03:20;;;;;;;0.00;0.00;;;28.50;38.10;;;;;;5126063;27;20066;-78
2022/07/08 10:05:47;;;;;;;0.00;0.00;;;28.70;38.20;;;;;;5127008;27;20031;-80
2022/07/08 10:08:14;;;;;;;0.00;0.00;;;28.90;37.60;;;;;;5126376;27;20031;-78
2022/07/08 10:10:42;;;;;;;0.00;0.00;;;28.80;37.40;;;;;;5132244;27;20097;-76
2022/07/08 10:13:09;;;;;;;0.00;0.00;;;28.90;36.80;;;;;;5129089;27;20352;-78
2022/07/08 10:15:36;;;;;;;0.00;0.00;;;29.20;36.50;;;;;;5126639;27;20106;-77
2022/07/08 10:18:18;;;;;;;0.00;0.00;;;29.00;37.00;;;;;;5129407;27;20450;-77
2022/07/08 10:20:56;;;;;;;0.10;0.10;;;28.30;37.50;;;;;;5130993;27;20019;-79
2022/07/08 10:23:34;;;;;;;0.00;0.00;;;28.20;37.70;;;;;;5127007;27;20113;-78
2022/07/08 10:26:02;;;;;;;0.03;0.03;;;28.30;38.40;;;;;;5129523;27;20314;-78
2022/07/08 10:28:36;;;;;;;0.00;0.00;;;28.00;38.40;;;;;;5127829;27;20027;-79
2022/07/08 10:31:02;;;;;;;0.22;0.15;;;28.10;37.80;;;;;;5123989;27;21465;-78
2022/07/08 10:33:30;;;;;;;0.70;0.57;;;28.40;38.10;;;;;;5124903;27;20042;-78
2022/07/08 10:36:09;;;;;;;0.22;0.20;;;27.70;38.30;;;;;;5126736;27;20039;-78
2022/07/08 10:38:41;;;;;;;0.57;0.57;;;27.50;39.20;;;;;;5125192;27;20011;-77
2022/07/08 10:41:09;;;;;;;0.00;0.00;;;27.40;39.40;;;;;;5128253;27;20026;-78
2022/07/08 10:43:36;;;;;;;0.38;0.38;;;27.30;39.50;;;;;;5126215;27;20038;-78
2022/07/08 10:46:15;;;;;;;0.40;0.40;;;27.70;39.50;;;;;;5120026;27;20035;-79
2022/07/08 10:48:41;;;;;;;0.00;0.00;;;27.80;38.50;;;;;;5126548;27;20031;-79
2022/07/08 10:51:19;;;;;;;3.38;3.20;;;27.90;38.40;;;;;;5127058;27;20053;-77
2022/07/08 10:53:53;;;;;;;0.10;0.10;;;27.90;38.90;;;;;;5127969;27;20400;-79
2022/07/08 10:56:50;;;;;;;0.20;0.20;;;28.00;39.00;;;;;;5123538;27;20490;-79
2022/07/08 10:59:28;;;;;;;0.47;0.47;;;27.80;38.40;;;;;;5124666;27;20041;-78
2022/07/08 11:02:04;;;;;;;0.22;0.22;;;28.00;37.50;;;;;;5122778;27;20027;-76
2022/07/08 11:04:41;;;;;;;0.40;0.40;;;27.70;37.50;;;;;;5122809;27;20074;-76
2022/07/08 11:07:17;;;;;;;0.00;0.00;;;27.30;38.00;;;;;;5127333;27;20027;-77
2022/07/08 11:09:45;;;;;;;0.17;0.15;;;27.40;38.10;;;;;;5119582;27;20079;-77
2022/07/08 11:12:15;;;;;;;0.10;0.10;;;27.40;38.20;;;;;;5121443;27;20066;-79
2022/07/08 11:14:44;;;;;;;0.00;0.00;;;27.70;38.60;;;;;;5126017;27;20102;-78
2022/07/08 11:17:21;;;;;;;0.00;0.00;;;27.70;37.80;;;;;;5126535;27;20103;-78
2022/07/08 11:19:48;;;;;;;3.30;0.10;;;27.30;38.00;;;;;;5128249;27;20134;-78
2022/07/08 11:22:14;;;;;;;0.00;0.00;;;27.40;38.00;;;;;;5109132;27;20047;-79
2022/07/08 11:24:44;;;;;;;0.00;0.00;;;27.50;38.00;;;;;;5124815;27;20467;-79
2022/07/08 11:27:13;;;;;;;0.00;0.00;;;27.60;38.40;;;;;;5108522;27;20023;-78
2022/07/08 11:29:48;;;;;;;0.00;0.00;;;27.40;38.00;;;;;;5123615;27;20040;-78
2022/07/08 11:32:14;;;;;;;0.00;0.00;;;27.30;37.90;;;;;;5127553;27;20395;-78
2022/07/08 11:34:40;;;;;;;0.00;0.00;;;27.30;38.20;;;;;;5120424;27;20355;-78
2022/07/08 11:37:06;;;;;;;0.00;0.00;;;27.60;38.70;;;;;;5128191;27;20056;-78
2022/07/08 11:39:33;;;;;;;0.00;0.00;;;27.80;38.60;;;;;;5126015;27;20470;-77
2022/07/08 11:42:00;;;;;;;0.00;0.00;;;27.90;37.90;;;;;;5122393;27;20123;-78
2022/07/08 11:44:27;;;;;;;0.00;0.00;;;28.10;37.10;;;;;;5123409;27;20048;-79
2022/07/08 11:46:54;;;;;;;0.00;0.00;;;27.80;38.60;;;;;;5127042;27;20403;-78
2022/07/08 11:49:22;;;;;;;0.00;0.00;;;27.70;38.00;;;;;;5126798;27;20020;-78
2022/07/08 11:51:58;;;;;;;0.00;0.00;;;27.80;38.10;;;;;;5130952;27;20025;-79
2022/07/08 11:54:29;;;;;;;0.00;0.00;;;27.90;38.00;;;;;;5124313;27;20348;-77
2022/07/08 11:56:59;;;;;;;0.45;0.30;;;27.20;38.30;;;;;;5122642;27;20038;-78
2022/07/08 11:59:27;;;;;;;0.00;0.00;;;27.10;38.50;;;;;;5130796;27;20047;-77
2022/07/08 12:01:57;;;;;;;1.23;0.57;;;27.20;38.30;;;;;;5128756;27;20035;-75
2022/07/08 12:04:24;;;;;;;18.90;4.05;;;27.20;38.60;;;;;;5125751;27;20026;-76
2022/07/08 12:07:01;;;;;;;0.00;0.00;;;27.00;38.70;;;;;;5124548;27;20413;-77
2022/07/08 12:09:29;;;;;;;0.00;0.00;;;27.20;38.50;;;;;;5120991;28;20031;-77
2022/07/08 12:11:58;;;;;;;0.00;0.00;;;27.40;37.70;;;;;;5126618;27;20076;-77
2022/07/08 12:14:25;;;;;;;0.10;0.10;;;27.40;37.70;;;;;;5122787;27;20126;-76
2022/07/08 12:16:54;;;;;;;0.00;0.00;;;27.30;37.60;;;;;;5123491;27;20027;-77
2022/07/08 12:19:27;;;;;;;0.00;0.00;;;27.20;38.00;;;;;;5133348;27;20432;-77
2022/07/08 12:21:55;;;;;;;0.00;0.00;;;27.30;38.70;;;;;;5131224;28;20068;-77
2022/07/08 12:24:31;;;;;;;0.00;0.00;;;27.40;38.30;;;;;;5132278;27;20027;-78
2022/07/08 12:26:59;;;;;;;1.45;0.57;;;27.70;37.20;;;;;;5133734;28;20019;-78
2022/07/08 12:29:32;;;;;;;0.98;0.98;;;27.70;38.10;;;;;;5134130;27;20064;-78
2022/07/08 12:31:59;;;;;;;0.00;0.00;;;27.50;37.90;;;;;;5129959;27;20027;-78
2022/07/08 12:34:26;;;;;;;0.13;0.13;;;27.50;37.50;;;;;;5133752;28;20408;-78
2022/07/08 12:36:52;;;;;;;0.00;0.00;;;27.20;38.30;;;;;;5133571;27;20023;-78
2022/07/08 12:39:20;;;;;;;0.00;0.00;;;27.20;38.80;;;;;;5131323;27;20023;-78
2022/07/08 12:42:04;;;;;;;1.25;0.32;;;27.20;39.00;;;;;;5130448;27;20563;-79
2022/07/08 12:44:32;;;;;;;0.00;0.00;;;27.40;38.50;;;;;;5136748;27;20019;-78
2022/07/08 12:46:59;;;;;;;0.00;0.00;;;27.50;38.30;;;;;;5140291;27;20368;-78
2022/07/08 12:49:29;;;;;;;0.00;0.00;;;27.50;38.50;;;;;;5133214;28;20026;-77
2022/07/08 12:51:56;;;;;;;0.00;0.00;;;27.30;38.70;;;;;;5133229;27;20062;-76
2022/07/08 12:54:23;;;;;;;0.00;0.00;;;27.30;39.20;;;;;;5128337;28;20027;-78